sensor_id;sensor_type;location;lat;lon;timestamp;pressure;altitude;pressure_sealevel;temperature;humidity
43681;BME280;29281;50.356;30.894;2023-04-06T00:00:16;99449.07;;;10.80;100.00
43681;BME280;29281;50.356;30.894;2023-04-06T00:01:22;99442.31;;;10.76;100.00
43681;BME280;29281;50.356;30.894;2023-04-06T00:02:26;99438.93;;;10.74;100.00
43681;BME280;29281;50.356;30.894;2023-04-06T00:03:29;99443.78;;;10.58;100.00
43681;BME280;29281;50.356;30.894;2023-04-06T00:04:33;99446.83;;;10.53;100.00
43681;BME280;29281;50.356;30.894;2023-04-06T00:05:40;99435.94;;;10.56;100.00
43681;BME280;29281;50.356;30.894;2023-04-06T00:06:43;99440.52;;;10.54;100.00
43681;BME280;29281;50.356;30.894;2023-04-06T00:07:49;99437.63;;;10.57;100.00
43681;BME280;29281;50.356;30.894;2023-04-06T00:08:53;99438.35;;;10.60;100.00
43681;BME280;29281;50.356;30.894;2023-04-06T00:09:55;99441.75;;;10.50;100.00
43681;BME280;29281;50.356;30.894;2023-04-06T00:10:59;99433.42;;;10.44;100.00
43681;BME280;29281;50.356;30.894;2023-04-06T00:12:02;99430.88;;;10.42;100.00
43681;BME280;29281;50.356;30.894;2023-04-06T00:13:06;99443.70;;;10.37;100.00
43681;BME280;29281;50.356;30.894;2023-04-06T00:14:10;99446.09;;;10.29;100.00
43681;BME280;29281;50.356;30.894;2023-04-06T00:15:14;99439.82;;;10.30;100.00
43681;BME280;29281;50.356;30.894;2023-04-06T00:16:19;99439.09;;;10.28;100.00
43681;BME280;29281;50.356;30.894;2023-04-06T00:17:24;99432.23;;;10.37;100.00
43681;BME280;29281;50.356;30.894;2023-04-06T00:18:28;99430.78;;;10.33;100.00
43681;BME280;29281;50.356;30.894;2023-04-06T00:19:32;99436.58;;;10.38;100.00
43681;BME280;29281;50.356;30.894;2023-04-06T00:20:36;99428.61;;;10.38;100.00
43681;BME280;29281;50.356;30.894;2023-04-06T00:21:39;99426.79;;;10.49;100.00
43681;BME280;29281;50.356;30.894;2023-04-06T00:22:42;99433.92;;;10.38;100.00
43681;BME280;29281;50.356;30.894;2023-04-06T00:23:46;99440.66;;;10.42;100.00
43681;BME280;29281;50.356;30.894;2023-04-06T00:24:49;99427.65;;;10.39;100.00
43681;BME280;29281;50.356;30.894;2023-04-06T00:25:53;99430.77;;;10.44;100.00
43681;BME280;29281;50.356;30.894;2023-04-06T00:26:56;99428.47;;;10.39;100.00
43681;BME280;29281;50.356;30.894;2023-04-06T00:27:59;99428.95;;;10.44;100.00
43681;BME280;29281;50.356;30.894;2023-04-06T00:29:03;99430.52;;;10.47;100.00
43681;BME280;29281;50.356;30.894;2023-04-06T00:30:07;99428.72;;;10.47;100.00
43681;BME280;29281;50.356;30.894;2023-04-06T00:31:11;99433.06;;;10.48;100.00
43681;BME280;29281;50.356;30.894;2023-04-06T00:32:14;99428.11;;;10.44;100.00
43681;BME280;29281;50.356;30.894;2023-04-06T00:33:18;99434.77;;;10.38;100.00
43681;BME280;29281;50.356;30.894;2023-04-06T00:34:21;99423.88;;;10.41;100.00
43681;BME280;29281;50.356;30.894;2023-04-06T00:35:24;99430.03;;;10.42;100.00
43681;BME280;29281;50.356;30.894;2023-04-06T00:36:27;99434.77;;;10.38;100.00
43681;BME280;29281;50.356;30.894;2023-04-06T00:37:31;99425.70;;;10.30;100.00
43681;BME280;29281;50.356;30.894;2023-04-06T00:38:37;99434.28;;;10.22;100.00
43681;BME280;29281;50.356;30.894;2023-04-06T00:39:42;99436.41;;;10.17;100.00
43681;BME280;29281;50.356;30.894;2023-04-06T00:40:45;99429.30;;;10.17;100.00
43681;BME280;29281;50.356;30.894;2023-04-06T00:41:49;99424.37;;;10.24;100.00
43681;BME280;29281;50.356;30.894;2023-04-06T00:42:54;99420.05;;;10.23;100.00
43681;BME280;29281;50.356;30.894;2023-04-06T00:43:57;99426.55;;;10.30;100.00
43681;BME280;29281;50.356;30.894;2023-04-06T00:45:00;99424.50;;;10.34;100.00
43681;BME280;29281;50.356;30.894;2023-04-06T00:46:06;99427.39;;;10.31;100.00
43681;BME280;29281;50.356;30.894;2023-04-06T00:47:14;99423.79;;;10.20;100.00
43681;BME280;29281;50.356;30.894;2023-04-06T00:48:18;99428.59;;;10.27;100.00
43681;BME280;29281;50.356;30.894;2023-04-06T00:49:22;99424.86;;;10.29;100.00
43681;BME280;29281;50.356;30.894;2023-04-06T00:50:26;99423.41;;;10.25;100.00
43681;BME280;29281;50.356;30.894;2023-04-06T00:51:30;99429.33;;;10.29;100.00
43681;BME280;29281;50.356;30.894;2023-04-06T00:52:34;99409.91;;;10.28;100.00
43681;BME280;29281;50.356;30.894;2023-04-06T00:53:39;99421.59;;;10.26;100.00
43681;BME280;29281;50.356;30.894;2023-04-06T00:54:43;99424.74;;;10.31;100.00
43681;BME280;29281;50.356;30.894;2023-04-06T00:55:46;99413.77;;;10.35;100.00
43681;BME280;29281;50.356;30.894;2023-04-06T00:56:49;99418.47;;;10.32;100.00
43681;BME280;29281;50.356;30.894;2023-04-06T00:57:53;99417.27;;;10.36;100.00
43681;BME280;29281;50.356;30.894;2023-04-06T00:58:57;99420.77;;;10.36;100.00
43681;BME280;29281;50.356;30.894;2023-04-06T01:00:03;99410.52;;;10.32;100.00
43681;BME280;29281;50.356;30.894;2023-04-06T01:01:07;99417.02;;;10.28;100.00
43681;BME280;29281;50.356;30.894;2023-04-06T01:02:11;99411.22;;;10.45;100.00
43681;BME280;29281;50.356;30.894;2023-04-06T01:03:18;99412.08;;;10.34;100.00
43681;BME280;29281;50.356;30.894;2023-04-06T01:04:22;99411.58;;;10.40;100.00
43681;BME280;29281;50.356;30.894;2023-04-06T01:05:27;99409.88;;;10.39;100.00
43681;BME280;29281;50.356;30.894;2023-04-06T01:06:32;99403.04;;;10.37;100.00
43681;BME280;29281;50.356;30.894;2023-04-06T01:07:36;99409.17;;;10.26;100.00
43681;BME280;29281;50.356;30.894;2023-04-06T01:08:44;99421.02;;;10.22;100.00
43681;BME280;29281;50.356;30.894;2023-04-06T01:09:54;99411.20;;;10.11;100.00
43681;BME280;29281;50.356;30.894;2023-04-06T01:11:00;99414.69;;;10.12;100.00
43681;BME280;29281;50.356;30.894;2023-04-06T01:12:09;99418.08;;;10.14;100.00
43681;BME280;29281;50.356;30.894;2023-04-06T01:13:12;99417.00;;;10.16;100.00
43681;BME280;29281;50.356;30.894;2023-04-06T01:14:24;99413.50;;;10.16;100.00
43681;BME280;29281;50.356;30.894;2023-04-06T01:15:29;99413.06;;;10.22;100.00
43681;BME280;29281;50.356;30.894;2023-04-06T01:16:37;99417.64;;;10.20;100.00
43681;BME280;29281;50.356;30.894;2023-04-06T01:17:42;99417.23;;;10.13;100.00
43681;BME280;29281;50.356;30.894;2023-04-06T01:18:48;99414.08;;;10.08;100.00
43681;BME280;29281;50.356;30.894;2023-04-06T01:19:57;99418.69;;;10.17;100.00
43681;BME280;29281;50.356;30.894;2023-04-06T01:21:02;99410.84;;;10.16;100.00
43681;BME280;29281;50.356;30.894;2023-04-06T01:22:05;99415.42;;;10.14;100.00
43681;BME280;29281;50.356;30.894;2023-04-06T01:23:10;99410.64;;;10.19;100.00
43681;BME280;29281;50.356;30.894;2023-04-06T01:24:15;99412.79;;;10.25;100.00
43681;BME280;29281;50.356;30.894;2023-04-06T01:25:30;99413.05;;;10.33;100.00
43681;BME280;29281;50.356;30.894;2023-04-06T01:26:39;99409.56;;;10.21;100.00
43681;BME280;29281;50.356;30.894;2023-04-06T01:27:43;99408.21;;;10.27;100.00
43681;BME280;29281;50.356;30.894;2023-04-06T01:28:48;99408.09;;;10.29;100.00
43681;BME280;29281;50.356;30.894;2023-04-06T01:29:54;99409.56;;;10.21;100.00
43681;BME280;29281;50.356;30.894;2023-04-06T01:30:59;99414.14;;;10.19;100.00
43681;BME280;29281;50.356;30.894;2023-04-06T01:32:10;99403.53;;;10.19;100.00
43681;BME280;29281;50.356;30.894;2023-04-06T01:33:14;99409.16;;;10.15;100.00
43681;BME280;29281;50.356;30.894;2023-04-06T01:34:20;99402.77;;;10.06;100.00
43681;BME280;29281;50.356;30.894;2023-04-06T01:35:25;99403.35;;;10.10;100.00
43681;BME280;29281;50.356;30.894;2023-04-06T01:36:30;99407.70;;;10.11;100.00
43681;BME280;29281;50.356;30.894;2023-04-06T01:37:36;99405.16;;;10.09;100.00
43681;BME280;29281;50.356;30.894;2023-04-06T01:38:41;99399.50;;;10.14;100.00
43681;BME280;29281;50.356;30.894;2023-04-06T01:39:44;99401.31;;;10.13;100.00
43681;BME280;29281;50.356;30.894;2023-04-06T01:40:54;99404.48;;;10.18;100.00
43681;BME280;29281;50.356;30.894;2023-04-06T01:41:59;99399.52;;;10.25;100.00
43681;BME280;29281;50.356;30.894;2023-04-06T01:43:03;99402.04;;;10.15;100.00
43681;BME280;29281;50.356;30.894;2023-04-06T01:44:08;99401.31;;;10.13;100.00
43681;BME280;29281;50.356;30.894;2023-04-06T01:45:11;99403.61;;;10.18;100.00
43681;BME280;29281;50.356;30.894;2023-04-06T01:46:15;99405.44;;;10.29;100.00
43681;BME280;29281;50.356;30.894;2023-04-06T01:47:18;99407.14;;;10.18;100.00
43681;BME280;29281;50.356;30.894;2023-04-06T01:48:21;99401.33;;;10.25;100.00
43681;BME280;29281;50.356;30.894;2023-04-06T01:49:25;99400.37;;;10.26;100.00
43681;BME280;29281;50.356;30.894;2023-04-06T01:50:30;99396.63;;;10.28;100.00
43681;BME280;29281;50.356;30.894;2023-04-06T01:51:34;99394.48;;;10.22;100.00
43681;BME280;29281;50.356;30.894;2023-04-06T01:52:39;99391.11;;;10.20;100.00
43681;BME280;29281;50.356;30.894;2023-04-06T01:53:42;99396.12;;;10.12;100.00
43681;BME280;29281;50.356;30.894;2023-04-06T01:54:47;99383.48;;;10.04;100.00
43681;BME280;29281;50.356;30.894;2023-04-06T01:55:52;99382.63;;;10.15;100.00
43681;BME280;29281;50.356;30.894;2023-04-06T01:56:59;99393.48;;;10.01;100.00
43681;BME280;29281;50.356;30.894;2023-04-06T01:58:15;99388.41;;;9.98;100.00
43681;BME280;29281;50.356;30.894;2023-04-06T01:59:18;99389.13;;;10.11;100.00
43681;BME280;29281;50.356;30.894;2023-04-06T02:00:22;99385.39;;;10.13;100.00
43681;BME280;29281;50.356;30.894;2023-04-06T02:01:27;99388.45;;;10.20;100.00
43681;BME280;29281;50.356;30.894;2023-04-06T02:02:31;99378.63;;;10.09;100.00
43681;BME280;29281;50.356;30.894;2023-04-06T02:03:36;99376.13;;;10.08;100.00
43681;BME280;29281;50.356;30.894;2023-04-06T02:04:41;99383.70;;;10.12;100.00
43681;BME280;29281;50.356;30.894;2023-04-06T02:05:46;99373.70;;;10.16;100.00
43681;BME280;29281;50.356;30.894;2023-04-06T02:06:54;99382.86;;;10.12;100.00
43681;BME280;29281;50.356;30.894;2023-04-06T02:07:58;99380.32;;;10.10;100.00
43681;BME280;29281;50.356;30.894;2023-04-06T02:09:09;99374.90;;;10.12;100.00
43681;BME280;29281;50.356;30.894;2023-04-06T02:10:12;99378.28;;;10.14;100.00
43681;BME280;29281;50.356;30.894;2023-04-06T02:11:16;99375.39;;;10.17;100.00
43681;BME280;29281;50.356;30.894;2023-04-06T02:12:21;99384.90;;;10.08;100.00
43681;BME280;29281;50.356;30.894;2023-04-06T02:13:24;99377.55;;;10.12;100.00
43681;BME280;29281;50.356;30.894;2023-04-06T02:14:27;99374.55;;;10.16;100.00
43681;BME280;29281;50.356;30.894;2023-04-06T02:15:33;99378.80;;;10.19;100.00
43681;BME280;29281;50.356;30.894;2023-04-06T02:16:38;99376.61;;;10.24;100.00
43681;BME280;29281;50.356;30.894;2023-04-06T02:17:42;99381.32;;;10.32;100.00
43681;BME280;29281;50.356;30.894;2023-04-06T02:18:45;99371.77;;;10.40;100.00
43681;BME280;29281;50.356;30.894;2023-04-06T02:19:51;99371.06;;;10.27;100.00
43681;BME280;29281;50.356;30.894;2023-04-06T02:20:54;99369.48;;;10.25;100.00
43681;BME280;29281;50.356;30.894;2023-04-06T02:21:58;99362.88;;;10.19;100.00
43681;BME280;29281;50.356;30.894;2023-04-06T02:23:05;99370.08;;;10.17;100.00
43681;BME280;29281;50.356;30.894;2023-04-06T02:24:08;99377.09;;;10.29;100.00
43681;BME280;29281;50.356;30.894;2023-04-06T02:25:12;99367.20;;;10.31;100.00
43681;BME280;29281;50.356;30.894;2023-04-06T02:26:14;99368.17;;;10.30;100.00
43681;BME280;29281;50.356;30.894;2023-04-06T02:27:16;99366.98;;;10.23;100.00
43681;BME280;29281;50.356;30.894;2023-04-06T02:28:22;99366.27;;;10.21;100.00
43681;BME280;29281;50.356;30.894;2023-04-06T02:29:25;99370.61;;;10.22;100.00
43681;BME280;29281;50.356;30.894;2023-04-06T02:30:30;99376.75;;;10.23;100.00
43681;BME280;29281;50.356;30.894;2023-04-06T02:31:35;99379.51;;;10.32;100.00
43681;BME280;29281;50.356;30.894;2023-04-06T02:32:39;99366.72;;;10.26;100.00
43681;BME280;29281;50.356;30.894;2023-04-06T02:33:42;99375.28;;;10.30;100.00
43681;BME280;29281;50.356;30.894;2023-04-06T02:34:48;99376.97;;;10.31;100.00
43681;BME280;29281;50.356;30.894;2023-04-06T02:35:53;99370.82;;;10.30;100.00
43681;BME280;29281;50.356;30.894;2023-04-06T02:36:56;99379.62;;;10.31;100.00
43681;BME280;29281;50.356;30.894;2023-04-06T02:38:00;99370.00;;;10.18;100.00
43681;BME280;29281;50.356;30.894;2023-04-06T02:39:04;99362.97;;;10.17;100.00
43681;BME280;29281;50.356;30.894;2023-04-06T02:40:08;99371.91;;;10.28;100.00
43681;BME280;29281;50.356;30.894;2023-04-06T02:41:13;99359.27;;;10.20;100.00
43681;BME280;29281;50.356;30.894;2023-04-06T02:42:17;99363.56;;;10.10;100.00
43681;BME280;29281;50.356;30.894;2023-04-06T02:43:21;99369.13;;;10.18;100.00
43681;BME280;29281;50.356;30.894;2023-04-06T02:44:26;99361.92;;;10.20;100.00
43681;BME280;29281;50.356;30.894;2023-04-06T02:45:32;99360.95;;;10.21;100.00
43681;BME280;29281;50.356;30.894;2023-04-06T02:46:35;99367.68;;;10.25;100.00
43681;BME280;29281;50.356;30.894;2023-04-06T02:47:38;99364.06;;;10.26;100.00
43681;BME280;29281;50.356;30.894;2023-04-06T02:48:43;99370.22;;;10.27;100.00
43681;BME280;29281;50.356;30.894;2023-04-06T02:49:46;99366.59;;;10.28;100.00
43681;BME280;29281;50.356;30.894;2023-04-06T02:50:50;99364.34;;;10.23;100.00
43681;BME280;29281;50.356;30.894;2023-04-06T02:51:54;99366.59;;;10.28;100.00
43681;BME280;29281;50.356;30.894;2023-04-06T02:52:59;99374.56;;;10.28;100.00
43681;BME280;29281;50.356;30.894;2023-04-06T02:54:02;99362.77;;;10.20;100.00
43681;BME280;29281;50.356;30.894;2023-04-06T02:55:05;99361.89;;;10.31;100.00
43681;BME280;29281;50.356;30.894;2023-04-06T02:56:09;99352.73;;;10.35;100.00
43681;BME280;29281;50.356;30.894;2023-04-06T02:57:15;99359.36;;;10.30;100.00
43681;BME280;29281;50.356;30.894;2023-04-06T02:58:19;99355.01;;;10.17;100.00
43681;BME280;29281;50.356;30.894;2023-04-06T02:59:25;99356.73;;;10.18;100.00
43681;BME280;29281;50.356;30.894;2023-04-06T03:00:34;99358.50;;;10.18;100.00
43681;BME280;29281;50.356;30.894;2023-04-06T03:01:40;99365.62;;;10.17;100.00
43681;BME280;29281;50.356;30.894;2023-04-06T03:02:43;99364.45;;;10.21;100.00
43681;BME280;29281;50.356;30.894;2023-04-06T03:03:49;99364.06;;;10.26;100.00
43681;BME280;29281;50.356;30.894;2023-04-06T03:04:54;99359.48;;;10.28;100.00
43681;BME280;29281;50.356;30.894;2023-04-06T03:05:59;99366.24;;;10.32;100.00
43681;BME280;29281;50.356;30.894;2023-04-06T03:07:04;99369.13;;;10.29;100.00
43681;BME280;29281;50.356;30.894;2023-04-06T03:08:10;99373.36;;;10.32;100.00
43681;BME280;29281;50.356;30.894;2023-04-06T03:09:15;99361.42;;;10.37;100.00
43681;BME280;29281;50.356;30.894;2023-04-06T03:10:18;99373.45;;;10.41;100.00
43681;BME280;29281;50.356;30.894;2023-04-06T03:11:22;99367.09;;;10.33;100.00
43681;BME280;29281;50.356;30.894;2023-04-06T03:12:26;99366.61;;;10.39;100.00
43681;BME280;29281;50.356;30.894;2023-04-06T03:13:50;99368.41;;;10.38;100.00
43681;BME280;29281;50.356;30.894;2023-04-06T03:14:53;99366.48;;;10.29;100.00
43681;BME280;29281;50.356;30.894;2023-04-06T03:15:56;99371.77;;;10.40;100.00
43681;BME280;29281;50.356;30.894;2023-04-06T03:17:01;99372.03;;;10.37;100.00
43681;BME280;29281;50.356;30.894;2023-04-06T03:18:06;99371.78;;;10.29;100.00
43681;BME280;29281;50.356;30.894;2023-04-06T03:19:11;99372.88;;;10.27;100.00
43681;BME280;29281;50.356;30.894;2023-04-06T03:20:14;99368.64;;;10.24;100.00
43681;BME280;29281;50.356;30.894;2023-04-06T03:21:18;99366.47;;;10.18;100.00
43681;BME280;29281;50.356;30.894;2023-04-06T03:22:24;99364.34;;;10.23;100.00
43681;BME280;29281;50.356;30.894;2023-04-06T03:23:27;99365.37;;;10.09;100.00
43681;BME280;29281;50.356;30.894;2023-04-06T03:24:31;99369.36;;;10.15;100.00
43681;BME280;29281;50.356;30.894;2023-04-06T03:25:37;99370.61;;;10.22;100.00
43681;BME280;29281;50.356;30.894;2023-04-06T03:26:44;99360.11;;;10.20;100.00
43681;BME280;29281;50.356;30.894;2023-04-06T03:27:47;99366.47;;;10.18;100.00
43681;BME280;29281;50.356;30.894;2023-04-06T03:28:52;99363.34;;;10.24;100.00
43681;BME280;29281;50.356;30.894;2023-04-06T03:29:57;99360.55;;;10.14;100.00
43681;BME280;29281;50.356;30.894;2023-04-06T03:31:03;99365.62;;;10.17;100.00
43681;BME280;29281;50.356;30.894;2023-04-06T03:32:12;99351.86;;;10.12;100.00
43681;BME280;29281;50.356;30.894;2023-04-06T03:33:16;99357.58;;;10.19;100.00
43681;BME280;29281;50.356;30.894;2023-04-06T03:34:22;99358.86;;;10.13;100.00
43681;BME280;29281;50.356;30.894;2023-04-06T03:35:25;99365.25;;;10.11;100.00
43681;BME280;29281;50.356;30.894;2023-04-06T03:36:28;99370.09;;;10.28;100.00
43681;BME280;29281;50.356;30.894;2023-04-06T03:37:32;99363.10;;;10.27;100.00
43681;BME280;29281;50.356;30.894;2023-04-06T03:38:37;99364.18;;;10.25;100.00
43681;BME280;29281;50.356;30.894;2023-04-06T03:39:43;99361.80;;;10.21;100.00
43681;BME280;29281;50.356;30.894;2023-04-06T03:40:48;99368.06;;;10.20;100.00
43681;BME280;29281;50.356;30.894;2023-04-06T03:41:54;99366.27;;;10.21;100.00
43681;BME280;29281;50.356;30.894;2023-04-06T03:43:04;99374.22;;;10.21;100.00
43681;BME280;29281;50.356;30.894;2023-04-06T03:44:08;99369.37;;;10.26;100.00
43681;BME280;29281;50.356;30.894;2023-04-06T03:45:11;99373.11;;;10.23;100.00
43681;BME280;29281;50.356;30.894;2023-04-06T03:46:22;99376.61;;;10.24;100.00
43681;BME280;29281;50.356;30.894;2023-04-06T03:47:27;99387.23;;;10.35;100.00
43681;BME280;29281;50.356;30.894;2023-04-06T03:48:32;99380.36;;;10.33;100.00
43681;BME280;29281;50.356;30.894;2023-04-06T03:49:38;99379.88;;;10.39;100.00
43681;BME280;29281;50.356;30.894;2023-04-06T03:50:42;99376.37;;;10.38;100.00
43681;BME280;29281;50.356;30.894;2023-04-06T03:51:47;99380.57;;;10.41;100.00
43681;BME280;29281;50.356;30.894;2023-04-06T03:52:50;99376.95;;;10.42;100.00
43681;BME280;29281;50.356;30.894;2023-04-06T03:53:53;99385.40;;;10.47;100.00
43681;BME280;29281;50.356;30.894;2023-04-06T03:54:57;99372.61;;;10.52;100.00
43681;BME280;29281;50.356;30.894;2023-04-06T03:56:00;99387.91;;;10.60;100.00
43681;BME280;29281;50.356;30.894;2023-04-06T03:57:05;99382.27;;;10.53;100.00
43681;BME280;29281;50.356;30.894;2023-04-06T03:58:08;99379.45;;;10.54;100.00
43681;BME280;29281;50.356;30.894;2023-04-06T03:59:10;99380.09;;;10.47;100.00
43681;BME280;29281;50.356;30.894;2023-04-06T04:00:14;99387.45;;;10.43;100.00
43681;BME280;29281;50.356;30.894;2023-04-06T04:01:17;99389.02;;;10.46;100.00
43681;BME280;29281;50.356;30.894;2023-04-06T04:02:20;99386.00;;;10.50;100.00
43681;BME280;29281;50.356;30.894;2023-04-06T04:03:25;99392.16;;;10.51;100.00
43681;BME280;29281;50.356;30.894;2023-04-06T04:04:29;99394.69;;;10.41;100.00
43681;BME280;29281;50.356;30.894;2023-04-06T04:05:33;99390.92;;;10.55;100.00
43681;BME280;29281;50.356;30.894;2023-04-06T04:06:37;99392.61;;;10.56;100.00
43681;BME280;29281;50.356;30.894;2023-04-06T04:07:43;99390.80;;;10.56;100.00
43681;BME280;29281;50.356;30.894;2023-04-06T04:08:47;99393.13;;;10.50;100.00
43681;BME280;29281;50.356;30.894;2023-04-06T04:09:50;99399.01;;;10.65;100.00
43681;BME280;29281;50.356;30.894;2023-04-06T04:10:53;99391.89;;;10.65;100.00
43681;BME280;29281;50.356;30.894;2023-04-06T04:11:57;99386.94;;;10.61;100.00
43681;BME280;29281;50.356;30.894;2023-04-06T04:13:01;99395.88;;;10.60;100.00
43681;BME280;29281;50.356;30.894;2023-04-06T04:14:05;99389.95;;;10.56;100.00
43681;BME280;29281;50.356;30.894;2023-04-06T04:15:09;99390.34;;;10.51;100.00
43681;BME280;29281;50.356;30.894;2023-04-06T04:16:11;99391.67;;;10.46;100.00
43681;BME280;29281;50.356;30.894;2023-04-06T04:17:16;99392.16;;;10.51;100.00
43681;BME280;29281;50.356;30.894;2023-04-06T04:18:21;99398.89;;;10.55;100.00
43681;BME280;29281;50.356;30.894;2023-04-06T04:19:26;99391.28;;;10.62;100.00
43681;BME280;29281;50.356;30.894;2023-04-06T04:20:30;99395.62;;;10.63;100.00
43681;BME280;29281;50.356;30.894;2023-04-06T04:21:41;99392.01;;;10.64;100.00
43681;BME280;29281;50.356;30.894;2023-04-06T04:22:41;99393.33;;;10.69;100.00
43681;BME280;29281;50.356;30.894;2023-04-06T04:23:45;99398.28;;;10.63;100.00
43681;BME280;29281;50.356;30.894;2023-04-06T04:24:48;99392.73;;;10.66;100.00
43681;BME280;29281;50.356;30.894;2023-04-06T04:25:52;99390.80;;;10.68;100.00
43681;BME280;29281;50.356;30.894;2023-04-06T04:26:56;99395.51;;;10.64;100.00
43681;BME280;29281;50.356;30.894;2023-04-06T04:27:59;99389.84;;;10.69;100.00
43681;BME280;29281;50.356;30.894;2023-04-06T04:29:02;99393.22;;;10.60;100.00
43681;BME280;29281;50.356;30.894;2023-04-06T04:30:08;99391.92;;;10.54;100.00
43681;BME280;29281;50.356;30.894;2023-04-06T04:31:11;99397.34;;;10.52;100.00
43681;BME280;29281;50.356;30.894;2023-04-06T04:32:15;99396.72;;;10.60;100.00
43681;BME280;29281;50.356;30.894;2023-04-06T04:33:21;99385.37;;;10.69;100.00
43681;BME280;29281;50.356;30.894;2023-04-06T04:34:27;99393.81;;;10.63;100.00
43681;BME280;29281;50.356;30.894;2023-04-06T04:35:30;99401.55;;;10.66;100.00
43681;BME280;29281;50.356;30.894;2023-04-06T04:36:34;99395.02;;;10.59;100.00
43681;BME280;29281;50.356;30.894;2023-04-06T04:37:38;99412.77;;;10.58;100.00
43681;BME280;29281;50.356;30.894;2023-04-06T04:38:42;99409.75;;;10.63;100.00
43681;BME280;29281;50.356;30.894;2023-04-06T04:39:46;99407.58;;;10.68;100.00
43681;BME280;29281;50.356;30.894;2023-04-06T04:40:49;99410.23;;;10.68;100.00
43681;BME280;29281;50.356;30.894;2023-04-06T04:41:53;99414.09;;;10.64;100.00
43681;BME280;29281;50.356;30.894;2023-04-06T04:42:56;99414.70;;;10.68;100.00
43681;BME280;29281;50.356;30.894;2023-04-06T04:44:01;99412.73;;;10.70;100.00
43681;BME280;29281;50.356;30.894;2023-04-06T04:45:05;99415.39;;;10.70;100.00
43681;BME280;29281;50.356;30.894;2023-04-06T04:46:10;99415.39;;;10.70;100.00
43681;BME280;29281;50.356;30.894;2023-04-06T04:47:14;99417.92;;;10.82;100.00
43681;BME280;29281;50.356;30.894;2023-04-06T04:48:21;99413.06;;;10.87;100.00
43681;BME280;29281;50.356;30.894;2023-04-06T04:49:31;99407.63;;;10.89;100.00
43681;BME280;29281;50.356;30.894;2023-04-06T04:50:35;99413.41;;;10.94;100.00
43681;BME280;29281;50.356;30.894;2023-04-06T04:51:38;99414.99;;;10.85;100.00
43681;BME280;29281;50.356;30.894;2023-04-06T04:52:44;99410.08;;;10.81;100.00
43681;BME280;29281;50.356;30.894;2023-04-06T04:53:49;99421.39;;;10.94;100.00
43681;BME280;29281;50.356;30.894;2023-04-06T04:54:58;99416.92;;;10.95;100.00
43681;BME280;29281;50.356;30.894;2023-04-06T04:56:02;99415.47;;;10.90;100.00
43681;BME280;29281;50.356;30.894;2023-04-06T04:57:06;99416.55;;;10.99;100.00
43681;BME280;29281;50.356;30.894;2023-04-06T04:58:19;99417.88;;;10.93;100.00
43681;BME280;29281;50.356;30.894;2023-04-06T04:59:24;99417.53;;;10.87;100.00
43681;BME280;29281;50.356;30.894;2023-04-06T05:00:32;99416.80;;;10.85;100.00
43681;BME280;29281;50.356;30.894;2023-04-06T05:01:35;99413.70;;;10.80;100.00
43681;BME280;29281;50.356;30.894;2023-04-06T05:02:41;99416.80;;;10.85;100.00
43681;BME280;29281;50.356;30.894;2023-04-06T05:03:46;99418.49;;;10.86;100.00
43681;BME280;29281;50.356;30.894;2023-04-06T05:04:51;99424.05;;;10.94;100.00
43681;BME280;29281;50.356;30.894;2023-04-06T05:05:57;99424.77;;;10.85;100.00
43681;BME280;29281;50.356;30.894;2023-04-06T05:07:08;99423.69;;;10.87;100.00
43681;BME280;29281;50.356;30.894;2023-04-06T05:08:13;99419.22;;;10.88;100.00
43681;BME280;29281;50.356;30.894;2023-04-06T05:09:18;99416.23;;;10.70;100.00
43681;BME280;29281;50.356;30.894;2023-04-06T05:11:35;99421.27;;;10.96;100.00
43681;BME280;29281;50.356;30.894;2023-04-06T05:12:39;99422.23;;;10.95;100.00
43681;BME280;29281;50.356;30.894;2023-04-06T05:13:43;99419.20;;;10.99;100.00
43681;BME280;29281;50.356;30.894;2023-04-06T05:14:50;99417.04;;;10.93;100.00
43681;BME280;29281;50.356;30.894;2023-04-06T05:15:54;99414.27;;;10.95;100.00
43681;BME280;29281;50.356;30.894;2023-04-06T05:17:02;99414.27;;;10.95;100.00
43681;BME280;29281;50.356;30.894;2023-04-06T05:18:09;99418.97;;;10.91;100.00
43681;BME280;29281;50.356;30.894;2023-04-06T05:19:11;99418.61;;;10.96;100.00
43681;BME280;29281;50.356;30.894;2023-04-06T05:20:16;99412.28;;;11.08;100.00
43681;BME280;29281;50.356;30.894;2023-04-06T05:21:22;99418.81;;;11.04;100.00
43681;BME280;29281;50.356;30.894;2023-04-06T05:22:29;99414.44;;;11.14;100.00
43681;BME280;29281;50.356;30.894;2023-04-06T05:23:39;99418.56;;;11.07;100.00
43681;BME280;29281;50.356;30.894;2023-04-06T05:24:43;99416.50;;;11.10;100.00
43681;BME280;29281;50.356;30.894;2023-04-06T05:25:46;99407.88;;;11.18;100.00
43681;BME280;29281;50.356;30.894;2023-04-06T05:26:52;99417.89;;;11.25;100.00
43681;BME280;29281;50.356;30.894;2023-04-06T05:27:58;99406.42;;;11.25;100.00
43681;BME280;29281;50.356;30.894;2023-04-06T05:29:07;99416.52;;;11.31;100.00
43681;BME280;29281;50.356;30.894;2023-04-06T05:30:12;99421.21;;;11.39;100.00
43681;BME280;29281;50.356;30.894;2023-04-06T05:31:19;99419.05;;;11.33;100.00
43681;BME280;29281;50.356;30.894;2023-04-06T05:32:25;99414.52;;;11.23;100.00
43681;BME280;29281;50.356;30.894;2023-04-06T05:33:29;99416.70;;;11.18;100.00
43681;BME280;29281;50.356;30.894;2023-04-06T05:34:37;99418.86;;;11.24;100.00
43681;BME280;29281;50.356;30.894;2023-04-06T05:35:44;99411.42;;;11.39;100.00